sensor_id;sensor_type;location;lat;lon;timestamp;pressure;altitude;pressure_sealevel;temperature;humidity
67109;BME280;54027;50.786;7.058;2023-06-04T00:02:18;101471.19;;;13.75;53.31
67109;BME280;54027;50.786;7.058;2023-06-04T00:04:44;101473.88;;;13.68;54.02
67109;BME280;54027;50.786;7.058;2023-06-04T00:07:09;101475.66;;;13.60;54.45
67109;BME280;54027;50.786;7.058;2023-06-04T00:09:34;101474.84;;;13.54;54.55
67109;BME280;54027;50.786;7.058;2023-06-04T00:12:00;101472.28;;;13.51;55.20
67109;BME280;54027;50.786;7.058;2023-06-04T00:14:25;101472.34;;;13.45;55.34
67109;BME280;54027;50.786;7.058;2023-06-04T00:16:51;101475.84;;;13.40;55.55
67109;BME280;54027;50.786;7.058;2023-06-04T00:19:16;101469.84;;;13.35;55.96
67109;BME280;54027;50.786;7.058;2023-06-04T00:21:41;101466.41;;;13.30;56.58
67109;BME280;54027;50.786;7.058;2023-06-04T00:24:07;101465.59;;;13.26;56.87
67109;BME280;54027;50.786;7.058;2023-06-04T00:26:33;101469.06;;;13.21;57.09
67109;BME280;54027;50.786;7.058;2023-06-04T00:28:58;101461.34;;;13.16;57.25
67109;BME280;54027;50.786;7.058;2023-06-04T00:31:24;101464.81;;;13.12;57.72
67109;BME280;54027;50.786;7.058;2023-06-04T00:33:50;101471.78;;;13.09;57.84
67109;BME280;54027;50.786;7.058;2023-06-04T00:36:15;101470.09;;;13.05;58.36
67109;BME280;54027;50.786;7.058;2023-06-04T00:38:41;101470.06;;;13.03;58.57
67109;BME280;54027;50.786;7.058;2023-06-04T00:41:06;101475.28;;;13.02;58.32
67109;BME280;54027;50.786;7.058;2023-06-04T00:43:32;101464.06;;;13.03;57.73
67109;BME280;54027;50.786;7.058;2023-06-04T00:45:58;101469.25;;;12.99;58.07
67109;BME280;54027;50.786;7.058;2023-06-04T00:48:23;101475.28;;;12.95;57.99
67109;BME280;54027;50.786;7.058;2023-06-04T00:50:53;101472.75;;;12.91;58.17
67109;BME280;54027;50.786;7.058;2023-06-04T00:53:20;101476.19;;;12.91;59.35
67109;BME280;54027;50.786;7.058;2023-06-04T00:55:46;101475.34;;;12.86;59.35
67109;BME280;54027;50.786;7.058;2023-06-04T00:58:11;101471.91;;;12.83;59.40
67109;BME280;54027;50.786;7.058;2023-06-04T01:00:37;101462.41;;;12.85;59.17
67109;BME280;54027;50.786;7.058;2023-06-04T01:03:07;101454.59;;;12.86;58.76
67109;BME280;54027;50.786;7.058;2023-06-04T01:05:40;101454.59;;;12.88;58.45
67109;BME280;54027;50.786;7.058;2023-06-04T01:08:08;101458.06;;;12.85;58.81
67109;BME280;54027;50.786;7.058;2023-06-04T01:10:35;101466.75;;;12.81;58.75
67109;BME280;54027;50.786;7.058;2023-06-04T01:13:01;101455.53;;;12.76;58.79
67109;BME280;54027;50.786;7.058;2023-06-04T01:15:26;101460.75;;;12.72;59.64
67109;BME280;54027;50.786;7.058;2023-06-04T01:17:58;101465.94;;;12.67;59.80
67109;BME280;54027;50.786;7.058;2023-06-04T01:20:41;101474.66;;;12.59;60.39
67109;BME280;54027;50.786;7.058;2023-06-04T01:23:28;101477.25;;;12.56;60.92
67109;BME280;54027;50.786;7.058;2023-06-04T01:26:01;101475.59;;;12.49;60.86
67109;BME280;54027;50.786;7.058;2023-06-04T01:28:29;101475.59;;;12.42;61.10
67109;BME280;54027;50.786;7.058;2023-06-04T01:30:55;101483.41;;;12.36;61.54
67109;BME280;54027;50.786;7.058;2023-06-04T01:33:22;101477.38;;;12.30;62.27
67109;BME280;54027;50.786;7.058;2023-06-04T01:35:48;101472.25;;;12.22;62.41
67109;BME280;54027;50.786;7.058;2023-06-04T01:38:14;101462.75;;;12.18;62.57
67109;BME280;54027;50.786;7.058;2023-06-04T01:40:40;101469.66;;;12.15;62.55
67109;BME280;54027;50.786;7.058;2023-06-04T01:43:06;101470.56;;;12.11;62.61
67109;BME280;54027;50.786;7.058;2023-06-04T01:45:32;101467.97;;;12.08;62.58
67109;BME280;54027;50.786;7.058;2023-06-04T01:47:57;101464.50;;;12.06;63.16
67109;BME280;54027;50.786;7.058;2023-06-04T01:50:22;101469.72;;;12.01;63.54
67109;BME280;54027;50.786;7.058;2023-06-04T01:52:48;101469.72;;;11.97;63.86
67109;BME280;54027;50.786;7.058;2023-06-04T01:55:16;101468.88;;;11.88;64.06
67109;BME280;54027;50.786;7.058;2023-06-04T01:57:44;101464.59;;;11.80;64.54
67109;BME280;54027;50.786;7.058;2023-06-04T02:00:11;101469.78;;;11.74;65.40
67109;BME280;54027;50.786;7.058;2023-06-04T02:02:37;101472.38;;;11.69;65.14
67109;BME280;54027;50.786;7.058;2023-06-04T02:05:07;101474.13;;;11.64;65.35
67109;BME280;54027;50.786;7.058;2023-06-04T02:07:39;101468.06;;;11.58;65.19
67109;BME280;54027;50.786;7.058;2023-06-04T02:10:15;101471.56;;;11.51;66.01
67109;BME280;54027;50.786;7.058;2023-06-04T02:12:56;101469.81;;;11.44;65.90
67109;BME280;54027;50.786;7.058;2023-06-04T02:15:22;101469.78;;;11.38;66.61
67109;BME280;54027;50.786;7.058;2023-06-04T02:17:48;101463.75;;;11.34;66.92
67109;BME280;54027;50.786;7.058;2023-06-04T02:20:16;101467.19;;;11.31;66.90
67109;BME280;54027;50.786;7.058;2023-06-04T02:22:41;101477.56;;;11.33;67.09
67109;BME280;54027;50.786;7.058;2023-06-04T02:25:07;101472.38;;;11.28;67.29
67109;BME280;54027;50.786;7.058;2023-06-04T02:27:34;101460.31;;;11.24;66.93
67109;BME280;54027;50.786;7.058;2023-06-04T02:30:00;101471.53;;;11.20;67.80
67109;BME280;54027;50.786;7.058;2023-06-04T02:32:25;101466.34;;;11.17;67.77
67109;BME280;54027;50.786;7.058;2023-06-04T02:34:51;101470.66;;;11.14;68.44
67109;BME280;54027;50.786;7.058;2023-06-04T02:37:16;101473.22;;;11.11;67.83
67109;BME280;54027;50.786;7.058;2023-06-04T02:39:41;101466.34;;;11.07;68.68
67109;BME280;54027;50.786;7.058;2023-06-04T02:42:07;101464.63;;;11.06;68.10
67109;BME280;54027;50.786;7.058;2023-06-04T02:44:32;101466.34;;;11.05;68.52
67109;BME280;54027;50.786;7.058;2023-06-04T02:46:58;101475.81;;;11.05;69.54
67109;BME280;54027;50.786;7.058;2023-06-04T02:49:23;101471.50;;;11.02;69.16
67109;BME280;54027;50.786;7.058;2023-06-04T02:51:48;101468.94;;;11.01;70.02
67109;BME280;54027;50.786;7.058;2023-06-04T02:54:15;101477.53;;;10.95;70.05
67109;BME280;54027;50.786;7.058;2023-06-04T02:56:40;101469.78;;;10.91;70.86
67109;BME280;54027;50.786;7.058;2023-06-04T02:59:05;101468.91;;;10.90;70.82
67109;BME280;54027;50.786;7.058;2023-06-04T03:01:34;101469.78;;;10.91;70.42
67109;BME280;54027;50.786;7.058;2023-06-04T03:04:00;101465.47;;;10.88;70.55
67109;BME280;54027;50.786;7.058;2023-06-04T03:06:29;101466.31;;;10.87;71.04
67109;BME280;54027;50.786;7.058;2023-06-04T03:08:54;101468.03;;;10.85;70.36
67109;BME280;54027;50.786;7.058;2023-06-04T03:11:21;101467.16;;;10.86;70.38
67109;BME280;54027;50.786;7.058;2023-06-04T03:13:47;101466.31;;;10.84;71.01
67109;BME280;54027;50.786;7.058;2023-06-04T03:16:13;101473.22;;;10.82;71.37
67109;BME280;54027;50.786;7.058;2023-06-04T03:18:42;101472.34;;;10.80;71.40
67109;BME280;54027;50.786;7.058;2023-06-04T03:21:09;101474.03;;;10.72;72.25
67109;BME280;54027;50.786;7.058;2023-06-04T03:23:37;101479.19;;;10.69;71.96
67109;BME280;54027;50.786;7.058;2023-06-04T03:26:06;101473.16;;;10.65;72.13
67109;BME280;54027;50.786;7.058;2023-06-04T03:28:32;101479.19;;;10.61;71.82
67109;BME280;54027;50.786;7.058;2023-06-04T03:30:58;101476.59;;;10.61;71.71
67109;BME280;54027;50.786;7.058;2023-06-04T03:33:23;101482.66;;;10.62;72.34
67109;BME280;54027;50.786;7.058;2023-06-04T03:35:50;101477.47;;;10.59;72.01
67109;BME280;54027;50.786;7.058;2023-06-04T03:38:16;101474.88;;;10.59;71.75
67109;BME280;54027;50.786;7.058;2023-06-04T03:40:42;101469.69;;;10.57;72.01
67109;BME280;54027;50.786;7.058;2023-06-04T03:43:08;101457.66;;;10.59;71.88
67109;BME280;54027;50.786;7.058;2023-06-04T03:45:34;101455.94;;;10.61;71.78
67109;BME280;54027;50.786;7.058;2023-06-04T03:47:59;101461.09;;;10.66;72.06
67109;BME280;54027;50.786;7.058;2023-06-04T03:50:25;101474.03;;;10.72;72.49
67109;BME280;54027;50.786;7.058;2023-06-04T03:52:50;101467.16;;;10.75;72.29
67109;BME280;54027;50.786;7.058;2023-06-04T03:55:15;101463.72;;;10.79;72.72
67109;BME280;54027;50.786;7.058;2023-06-04T03:57:41;101463.72;;;10.84;72.59
67109;BME280;54027;50.786;7.058;2023-06-04T04:00:08;101468.03;;;10.90;72.90
67109;BME280;54027;50.786;7.058;2023-06-04T04:02:37;101458.56;;;10.93;72.90
67109;BME280;54027;50.786;7.058;2023-06-04T04:05:02;101457.72;;;10.97;72.00
67109;BME280;54027;50.786;7.058;2023-06-04T04:07:28;101454.25;;;11.01;72.38
67109;BME280;54027;50.786;7.058;2023-06-04T04:09:53;101454.28;;;11.06;71.67
67109;BME280;54027;50.786;7.058;2023-06-04T04:12:19;101449.09;;;11.12;72.50
67109;BME280;54027;50.786;7.058;2023-06-04T04:14:44;101454.25;;;11.19;71.47
67109;BME280;54027;50.786;7.058;2023-06-04T04:17:09;101453.41;;;11.28;71.53
67109;BME280;54027;50.786;7.058;2023-06-04T04:19:35;101452.53;;;11.41;72.04
67109;BME280;54027;50.786;7.058;2023-06-04T04:22:01;101453.44;;;11.48;71.34
67109;BME280;54027;50.786;7.058;2023-06-04T04:24:27;101443.94;;;11.54;71.35
67109;BME280;54027;50.786;7.058;2023-06-04T04:26:53;101448.22;;;11.61;71.29
67109;BME280;54027;50.786;7.058;2023-06-04T04:29:22;101451.66;;;11.68;70.90
67109;BME280;54027;50.786;7.058;2023-06-04T04:31:53;101457.69;;;11.77;70.91
67109;BME280;54027;50.786;7.058;2023-06-04T04:34:21;101455.06;;;11.85;71.35
67109;BME280;54027;50.786;7.058;2023-06-04T04:36:49;101448.16;;;11.88;70.83
67109;BME280;54027;50.786;7.058;2023-06-04T04:39:22;101449.00;;;11.97;70.57
67109;BME280;54027;50.786;7.058;2023-06-04T04:41:49;101453.28;;;12.02;71.47
67109;BME280;54027;50.786;7.058;2023-06-04T04:44:15;101458.47;;;12.10;70.83
67109;BME280;54027;50.786;7.058;2023-06-04T04:46:40;101452.38;;;12.17;70.89
67109;BME280;54027;50.786;7.058;2023-06-04T04:49:05;101451.50;;;12.22;70.78
67109;BME280;54027;50.786;7.058;2023-06-04T04:51:31;101454.06;;;12.28;70.46
67109;BME280;54027;50.786;7.058;2023-06-04T04:53:57;101457.50;;;12.33;70.50
67109;BME280;54027;50.786;7.058;2023-06-04T04:56:25;101454.00;;;12.39;70.21
67109;BME280;54027;50.786;7.058;2023-06-04T04:58:51;101456.56;;;12.45;70.11
67109;BME280;54027;50.786;7.058;2023-06-04T05:01:17;101449.66;;;12.49;70.24
67109;BME280;54027;50.786;7.058;2023-06-04T05:03:42;101444.44;;;12.55;70.24
67109;BME280;54027;50.786;7.058;2023-06-04T05:06:07;101443.53;;;12.60;69.93
67109;BME280;54027;50.786;7.058;2023-06-04T05:08:33;101439.16;;;12.65;69.06
67109;BME280;54027;50.786;7.058;2023-06-04T05:10:58;101424.44;;;12.72;67.75
67109;BME280;54027;50.786;7.058;2023-06-04T05:13:24;101415.75;;;12.79;66.58
67109;BME280;54027;50.786;7.058;2023-06-04T05:15:49;101412.22;;;12.86;65.93
67109;BME280;54027;50.786;7.058;2023-06-04T05:18:18;101408.72;;;12.93;65.60
67109;BME280;54027;50.786;7.058;2023-06-04T05:20:46;101396.56;;;13.03;64.81
67109;BME280;54027;50.786;7.058;2023-06-04T05:23:11;101401.69;;;13.12;64.28
67109;BME280;54027;50.786;7.058;2023-06-04T05:25:37;101401.59;;;13.19;63.90
67109;BME280;54027;50.786;7.058;2023-06-04T05:28:03;101394.63;;;13.26;63.43
67109;BME280;54027;50.786;7.058;2023-06-04T05:30:28;101404.97;;;13.30;63.09
67109;BME280;54027;50.786;7.058;2023-06-04T05:32:54;101402.31;;;13.38;63.08
67109;BME280;54027;50.786;7.058;2023-06-04T05:35:19;101414.38;;;13.42;62.98
67109;BME280;54027;50.786;7.058;2023-06-04T05:37:45;101410.84;;;13.47;62.69
67109;BME280;54027;50.786;7.058;2023-06-04T05:40:11;101416.88;;;13.51;62.84
67109;BME280;54027;50.786;7.058;2023-06-04T05:42:37;101422.91;;;13.54;62.82
67109;BME280;54027;50.786;7.058;2023-06-04T05:45:02;101412.47;;;13.57;62.67
67109;BME280;54027;50.786;7.058;2023-06-04T05:47:28;101417.66;;;13.62;62.52
67109;BME280;54027;50.786;7.058;2023-06-04T05:49:55;101410.66;;;13.67;62.26
67109;BME280;54027;50.786;7.058;2023-06-04T05:52:20;101397.63;;;13.70;61.01
67109;BME280;54027;50.786;7.058;2023-06-04T05:54:45;101401.03;;;13.77;60.84
67109;BME280;54027;50.786;7.058;2023-06-04T05:57:11;101393.13;;;13.84;59.75
67109;BME280;54027;50.786;7.058;2023-06-04T05:59:36;101396.47;;;13.95;59.42
67109;BME280;54027;50.786;7.058;2023-06-04T06:02:01;101394.59;;;14.05;59.17
67109;BME280;54027;50.786;7.058;2023-06-04T06:04:27;101398.00;;;14.10;58.90
67109;BME280;54027;50.786;7.058;2023-06-04T06:06:53;101414.38;;;14.18;59.26
67109;BME280;54027;50.786;7.058;2023-06-04T06:09:19;101413.47;;;14.21;59.79
67109;BME280;54027;50.786;7.058;2023-06-04T06:11:44;101409.94;;;14.26;59.40
67109;BME280;54027;50.786;7.058;2023-06-04T06:14:10;101399.38;;;14.37;58.63
67109;BME280;54027;50.786;7.058;2023-06-04T06:16:35;101395.81;;;14.47;57.94
67109;BME280;54027;50.786;7.058;2023-06-04T06:19:01;101393.94;;;14.56;57.23
67109;BME280;54027;50.786;7.058;2023-06-04T06:21:27;101391.16;;;14.67;56.98
67109;BME280;54027;50.786;7.058;2023-06-04T06:23:53;101373.69;;;14.77;54.42
67109;BME280;54027;50.786;7.058;2023-06-04T06:26:19;101381.34;;;14.86;54.68
67109;BME280;54027;50.786;7.058;2023-06-04T06:28:44;101363.84;;;14.95;53.02
67109;BME280;54027;50.786;7.058;2023-06-04T06:31:10;101374.91;;;15.06;52.95
67109;BME280;54027;50.786;7.058;2023-06-04T06:33:35;101383.50;;;15.11;53.54
67109;BME280;54027;50.786;7.058;2023-06-04T06:36:06;101372.09;;;15.18;52.29
67109;BME280;54027;50.786;7.058;2023-06-04T06:38:32;101361.53;;;15.26;51.05
67109;BME280;54027;50.786;7.058;2023-06-04T06:40:57;101363.06;;;15.38;50.38
67109;BME280;54027;50.786;7.058;2023-06-04T06:43:23;101372.41;;;15.49;50.93
67109;BME280;54027;50.786;7.058;2023-06-04T06:45:48;101366.88;;;15.67;49.61
67109;BME280;54027;50.786;7.058;2023-06-04T06:48:13;101378.03;;;15.74;49.43
67109;BME280;54027;50.786;7.058;2023-06-04T06:50:39;101386.56;;;15.82;49.64
67109;BME280;54027;50.786;7.058;2023-06-04T06:53:04;101398.47;;;15.95;50.18
67109;BME280;54027;50.786;7.058;2023-06-04T06:55:30;101388.78;;;16.02;49.53
67109;BME280;54027;50.786;7.058;2023-06-04T06:57:55;101386.97;;;16.05;49.55
67109;BME280;54027;50.786;7.058;2023-06-04T07:00:21;101392.06;;;16.10;49.67
67109;BME280;54027;50.786;7.058;2023-06-04T07:02:46;101387.59;;;16.15;49.80
67109;BME280;54027;50.786;7.058;2023-06-04T07:05:11;101395.41;;;16.16;50.23
67109;BME280;54027;50.786;7.058;2023-06-04T07:07:39;101390.00;;;16.25;49.58
67109;BME280;54027;50.786;7.058;2023-06-04T07:10:05;101391.69;;;16.28;49.45
67109;BME280;54027;50.786;7.058;2023-06-04T07:12:30;101382.91;;;16.32;48.50
67109;BME280;54027;50.786;7.058;2023-06-04T07:14:56;101380.16;;;16.38;48.33
67109;BME280;54027;50.786;7.058;2023-06-04T07:17:22;101373.91;;;16.45;47.81
67109;BME280;54027;50.786;7.058;2023-06-04T07:19:47;101377.09;;;16.56;46.67
67109;BME280;54027;50.786;7.058;2023-06-04T07:22:13;101384.06;;;16.57;47.28
67109;BME280;54027;50.786;7.058;2023-06-04T07:24:41;101383.03;;;16.63;47.79
67109;BME280;54027;50.786;7.058;2023-06-04T07:27:11;101402.03;;;16.71;48.03
67109;BME280;54027;50.786;7.058;2023-06-04T07:29:36;101407.06;;;16.80;48.43
67109;BME280;54027;50.786;7.058;2023-06-04T07:32:02;101400.84;;;16.85;47.85
67109;BME280;54027;50.786;7.058;2023-06-04T07:34:27;101396.00;;;17.04;47.44
67109;BME280;54027;50.786;7.058;2023-06-04T07:36:53;101389.59;;;17.17;46.71
67109;BME280;54027;50.786;7.058;2023-06-04T07:39:18;101386.00;;;17.21;46.56
67109;BME280;54027;50.786;7.058;2023-06-04T07:41:43;101387.69;;;17.24;46.26
67109;BME280;54027;50.786;7.058;2023-06-04T07:44:09;101402.19;;;17.35;47.75
67109;BME280;54027;50.786;7.058;2023-06-04T07:46:34;101384.63;;;17.40;47.04
67109;BME280;54027;50.786;7.058;2023-06-04T07:49:00;101382.78;;;17.44;46.61
67109;BME280;54027;50.786;7.058;2023-06-04T07:51:25;101386.88;;;17.54;46.71
67109;BME280;54027;50.786;7.058;2023-06-04T07:53:51;101391.91;;;17.60;47.01
67109;BME280;54027;50.786;7.058;2023-06-04T07:56:16;101399.59;;;17.66;47.93
67109;BME280;54027;50.786;7.058;2023-06-04T07:58:41;101404.66;;;17.72;47.68
67109;BME280;54027;50.786;7.058;2023-06-04T08:01:09;101392.03;;;17.88;46.63
67109;BME280;54027;50.786;7.058;2023-06-04T08:03:34;101380.44;;;17.98;46.12
67109;BME280;54027;50.786;7.058;2023-06-04T08:06:00;101370.56;;;18.08;45.45
67109;BME280;54027;50.786;7.058;2023-06-04T08:08:26;101372.06;;;18.15;44.92
67109;BME280;54027;50.786;7.058;2023-06-04T08:10:52;101378.69;;;18.26;44.99
67109;BME280;54027;50.786;7.058;2023-06-04T08:13:17;101372.31;;;18.35;44.53
67109;BME280;54027;50.786;7.058;2023-06-04T08:15:43;101395.66;;;18.42;46.03
67109;BME280;54027;50.786;7.058;2023-06-04T08:18:09;101372.69;;;18.52;44.78
67109;BME280;54027;50.786;7.058;2023-06-04T08:20:34;101365.53;;;18.57;44.10
67109;BME280;54027;50.786;7.058;2023-06-04T08:23:00;101363.66;;;18.61;43.39
67109;BME280;54027;50.786;7.058;2023-06-04T08:25:25;101372.41;;;18.60;43.73
67109;BME280;54027;50.786;7.058;2023-06-04T08:27:51;101379.22;;;18.65;44.50
67109;BME280;54027;50.786;7.058;2023-06-04T08:30:16;101397.16;;;18.77;45.01
67109;BME280;54027;50.786;7.058;2023-06-04T08:32:41;101382.91;;;18.87;44.14
67109;BME280;54027;50.786;7.058;2023-06-04T08:35:07;101369.50;;;18.96;43.63
67109;BME280;54027;50.786;7.058;2023-06-04T08:37:33;101370.00;;;19.07;43.87
67109;BME280;54027;50.786;7.058;2023-06-04T08:39:58;101384.38;;;19.21;44.07
67109;BME280;54027;50.786;7.058;2023-06-04T08:42:42;101379.34;;;19.41;44.11
67109;BME280;54027;50.786;7.058;2023-06-04T08:45:11;101371.03;;;19.53;43.36
67109;BME280;54027;50.786;7.058;2023-06-04T08:47:44;101369.78;;;19.63;43.15
67109;BME280;54027;50.786;7.058;2023-06-04T08:50:16;101363.97;;;19.78;43.02
67109;BME280;54027;50.786;7.058;2023-06-04T08:52:42;101349.88;;;19.82;41.63
67109;BME280;54027;50.786;7.058;2023-06-04T08:55:11;101370.22;;;19.99;42.61
67109;BME280;54027;50.786;7.058;2023-06-04T08:57:39;101376.50;;;20.18;42.65
67109;BME280;54027;50.786;7.058;2023-06-04T09:00:06;101373.59;;;20.26;42.59
67109;BME280;54027;50.786;7.058;2023-06-04T09:02:37;101377.81;;;20.30;42.50
67109;BME280;54027;50.786;7.058;2023-06-04T09:05:06;101370.59;;;20.35;42.62
67109;BME280;54027;50.786;7.058;2023-06-04T09:07:36;101371.78;;;20.49;41.91
67109;BME280;54027;50.786;7.058;2023-06-04T09:10:04;101350.59;;;20.76;40.52
67109;BME280;54027;50.786;7.058;2023-06-04T09:12:32;101349.19;;;20.89;39.08
67109;BME280;54027;50.786;7.058;2023-06-04T09:15:00;101366.34;;;20.97;40.06
67109;BME280;54027;50.786;7.058;2023-06-04T09:17:27;101356.03;;;21.13;39.00
67109;BME280;54027;50.786;7.058;2023-06-04T09:19:53;101337.91;;;21.07;36.74
67109;BME280;54027;50.786;7.058;2023-06-04T09:22:19;101348.94;;;21.15;37.24
67109;BME280;54027;50.786;7.058;2023-06-04T09:24:47;101336.97;;;21.28;35.97
67109;BME280;54027;50.786;7.058;2023-06-04T09:27:19;101338.22;;;21.40;35.65
67109;BME280;54027;50.786;7.058;2023-06-04T09:29:56;101354.84;;;21.60;35.94
67109;BME280;54027;50.786;7.058;2023-06-04T09:32:26;101332.63;;;21.86;35.27
67109;BME280;54027;50.786;7.058;2023-06-04T09:34:52;101326.66;;;22.01;33.74
67109;BME280;54027;50.786;7.058;2023-06-04T09:37:18;101330.28;;;22.17;34.24
67109;BME280;54027;50.786;7.058;2023-06-04T09:39:56;101337.66;;;22.09;33.62
67109;BME280;54027;50.786;7.058;2023-06-04T09:42:22;101348.78;;;22.16;33.52
67109;BME280;54027;50.786;7.058;2023-06-04T09:44:48;101337.66;;;22.09;32.74
67109;BME280;54027;50.786;7.058;2023-06-04T09:47:13;101350.41;;;22.18;33.18
67109;BME280;54027;50.786;7.058;2023-06-04T09:49:47;101343.09;;;22.44;33.24
67109;BME280;54027;50.786;7.058;2023-06-04T09:52:14;101340.06;;;22.51;32.74
67109;BME280;54027;50.786;7.058;2023-06-04T09:54:40;101328.53;;;22.54;30.97
67109;BME280;54027;50.786;7.058;2023-06-04T09:57:17;101330.25;;;22.55;30.39
67109;BME280;54027;50.786;7.058;2023-06-04T09:59:45;101351.28;;;22.73;31.26
67109;BME280;54027;50.786;7.058;2023-06-04T10:02:11;101326.31;;;22.80;28.43
67109;BME280;54027;50.786;7.058;2023-06-04T10:04:40;101344.25;;;23.08;29.88
67109;BME280;54027;50.786;7.058;2023-06-04T10:07:09;101339.03;;;23.07;28.47
67109;BME280;54027;50.786;7.058;2023-06-04T10:09:35;101341.63;;;23.25;28.50
67109;BME280;54027;50.786;7.058;2023-06-04T10:12:08;101338.44;;;23.36;28.04
67109;BME280;54027;50.786;7.058;2023-06-04T10:14:56;101333.47;;;23.30;27.05
67109;BME280;54027;50.786;7.058;2023-06-04T10:17:23;101349.97;;;23.33;28.13
67109;BME280;54027;50.786;7.058;2023-06-04T10:19:51;101337.88;;;23.47;27.49
67109;BME280;54027;50.786;7.058;2023-06-04T10:22:20;101355.91;;;23.54;28.03
67109;BME280;54027;50.786;7.058;2023-06-04T10:24:45;101339.28;;;23.36;26.60
67109;BME280;54027;50.786;7.058;2023-06-04T10:27:12;101343.72;;;23.36;27.45
67109;BME280;54027;50.786;7.058;2023-06-04T10:29:38;101327.84;;;23.53;26.13
67109;BME280;54027;50.786;7.058;2023-06-04T10:32:04;101331.41;;;23.52;26.70
67109;BME280;54027;50.786;7.058;2023-06-04T10:34:30;101329.63;;;23.53;26.37
67109;BME280;54027;50.786;7.058;2023-06-04T10:36:56;101336.81;;;23.66;26.78
67109;BME280;54027;50.786;7.058;2023-06-04T10:39:31;101338.81;;;23.94;27.87
67109;BME280;54027;50.786;7.058;2023-06-04T10:42:04;101335.38;;;24.09;26.51
67109;BME280;54027;50.786;7.058;2023-06-04T10:44:46;101324.47;;;24.15;26.61
67109;BME280;54027;50.786;7.058;2023-06-04T10:47:22;101313.56;;;24.37;25.80
67109;BME280;54027;50.786;7.058;2023-06-04T10:49:53;101318.38;;;24.44;25.70
67109;BME280;54027;50.786;7.058;2023-06-04T10:52:18;101313.78;;;24.48;24.94
67109;BME280;54027;50.786;7.058;2023-06-04T10:54:45;101330.84;;;24.42;25.91
67109;BME280;54027;50.786;7.058;2023-06-04T10:57:17;101327.63;;;24.67;26.39
67109;BME280;54027;50.786;7.058;2023-06-04T11:00:03;101333.19;;;24.63;26.35
67109;BME280;54027;50.786;7.058;2023-06-04T11:02:31;101343.69;;;24.80;26.55
67109;BME280;54027;50.786;7.058;2023-06-04T11:05:06;101332.34;;;24.46;25.30
67109;BME280;54027;50.786;7.058;2023-06-04T11:07:48;101350.25;;;24.57;26.95
67109;BME280;54027;50.786;7.058;2023-06-04T11:10:16;101328.53;;;24.52;25.79
67109;BME280;54027;50.786;7.058;2023-06-04T11:12:46;101333.28;;;24.77;26.26
67109;BME280;54027;50.786;7.058;2023-06-04T11:15:13;101323.47;;;24.79;25.44
67109;BME280;54027;50.786;7.058;2023-06-04T11:17:52;101324.50;;;24.61;25.33
67109;BME280;54027;50.786;7.058;2023-06-04T11:20:19;101331.53;;;24.46;26.42
67109;BME280;54027;50.786;7.058;2023-06-04T11:22:55;101316.66;;;24.75;25.65
67109;BME280;54027;50.786;7.058;2023-06-04T11:25:24;101319.47;;;25.01;26.28
67109;BME280;54027;50.786;7.058;2023-06-04T11:27:52;101308.88;;;24.87;24.56
67109;BME280;54027;50.786;7.058;2023-06-04T11:30:17;101309.22;;;24.81;24.64
67109;BME280;54027;50.786;7.058;2023-06-04T11:32:43;101326.06;;;24.94;26.65
67109;BME280;54027;50.786;7.058;2023-06-04T11:35:09;101302.75;;;25.01;24.49
67109;BME280;54027;50.786;7.058;2023-06-04T11:37:37;101301.25;;;25.11;24.63
67109;BME280;54027;50.786;7.058;2023-06-04T11:40:14;101301.28;;;25.39;24.29
67109;BME280;54027;50.786;7.058;2023-06-04T11:42:40;101302.47;;;25.49;24.98
67109;BME280;54027;50.786;7.058;2023-06-04T11:45:10;101300.34;;;25.69;24.65
67109;BME280;54027;50.786;7.058;2023-06-04T11:47:35;101291.16;;;25.88;24.06
67109;BME280;54027;50.786;7.058;2023-06-04T11:50:01;101294.16;;;25.96;22.41
67109;BME280;54027;50.786;7.058;2023-06-04T11:52:27;101309.25;;;25.82;23.75
67109;BME280;54027;50.786;7.058;2023-06-04T11:54:53;101300.13;;;26.14;22.75
67109;BME280;54027;50.786;7.058;2023-06-04T11:57:19;101300.59;;;26.21;22.60
67109;BME280;54027;50.786;7.058;2023-06-04T11:59:45;101300.88;;;26.16;22.84
67109;BME280;54027;50.786;7.058;2023-06-04T12:02:10;101307.13;;;26.68;23.10
67109;BME280;54027;50.786;7.058;2023-06-04T12:04:36;101296.72;;;26.65;22.06
67109;BME280;54027;50.786;7.058;2023-06-04T12:07:03;101306.94;;;26.45;22.24
67109;BME280;54027;50.786;7.058;2023-06-04T12:09:32;101298.66;;;26.49;22.55
67109;BME280;54027;50.786;7.058;2023-06-04T12:12:04;101302.84;;;26.53;22.45
67109;BME280;54027;50.786;7.058;2023-06-04T12:14:30;101299.25;;;26.67;22.06
67109;BME280;54027;50.786;7.058;2023-06-04T12:16:57;101306.97;;;26.57;22.24
67109;BME280;54027;50.786;7.058;2023-06-04T12:19:23;101297.13;;;26.59;21.37
67109;BME280;54027;50.786;7.058;2023-06-04T12:22:02;101299.56;;;27.27;21.52
67109;BME280;54027;50.786;7.058;2023-06-04T12:24:28;101283.97;;;27.60;20.92
67109;BME280;54027;50.786;7.058;2023-06-04T12:27:04;101286.75;;;27.95;21.10
67109;BME280;54027;50.786;7.058;2023-06-04T12:29:31;101287.06;;;27.54;20.54
67109;BME280;54027;50.786;7.058;2023-06-04T12:32:09;101286.63;;;27.48;21.12
67109;BME280;54027;50.786;7.058;2023-06-04T12:34:40;101285.53;;;27.38;21.41
67109;BME280;54027;50.786;7.058;2023-06-04T12:37:06;101289.91;;;27.01;21.30
67109;BME280;54027;50.786;7.058;2023-06-04T12:39:36;101299.16;;;27.33;21.12
67109;BME280;54027;50.786;7.058;2023-06-04T12:42:08;101290.34;;;26.68;21.16
67109;BME280;54027;50.786;7.058;2023-06-04T12:44:35;101285.97;;;26.94;21.27
67109;BME280;54027;50.786;7.058;2023-06-04T12:47:02;101290.22;;;27.09;21.70
67109;BME280;54027;50.786;7.058;2023-06-04T12:49:27;101302.94;;;27.16;22.88
67109;BME280;54027;50.786;7.058;2023-06-04T12:51:52;101301.91;;;27.32;22.16